sensor_id;sensor_type;location;lat;lon;timestamp;P1;durP1;ratioP1;P2;durP2;ratioP2
56181;SDS011;51963;46.052;14.544;2023-02-28T00:00:08;15.85;;;8.13;;
56181;SDS011;51963;46.052;14.544;2023-02-28T00:02:36;17.40;;;8.05;;
56181;SDS011;51963;46.052;14.544;2023-02-28T00:05:03;16.88;;;7.95;;
56181;SDS011;51963;46.052;14.544;2023-02-28T00:07:30;19.52;;;8.82;;
56181;SDS011;51963;46.052;14.544;2023-02-28T00:09:56;16.50;;;8.40;;
56181;SDS011;51963;46.052;14.544;2023-02-28T00:12:22;16.20;;;8.80;;
56181;SDS011;51963;46.052;14.544;2023-02-28T00:14:48;16.90;;;8.48;;
56181;SDS011;51963;46.052;14.544;2023-02-28T00:17:14;19.00;;;9.63;;
56181;SDS011;51963;46.052;14.544;2023-02-28T00:19:41;19.65;;;8.23;;
56181;SDS011;51963;46.052;14.544;2023-02-28T00:22:07;17.52;;;8.63;;
56181;SDS011;51963;46.052;14.544;2023-02-28T00:24:33;18.13;;;9.18;;
56181;SDS011;51963;46.052;14.544;2023-02-28T00:26:58;17.67;;;8.45;;
56181;SDS011;51963;46.052;14.544;2023-02-28T00:29:24;15.40;;;8.55;;
56181;SDS011;51963;46.052;14.544;2023-02-28T00:31:49;15.93;;;8.60;;
56181;SDS011;51963;46.052;14.544;2023-02-28T00:34:16;17.15;;;9.07;;
56181;SDS011;51963;46.052;14.544;2023-02-28T00:36:42;14.60;;;7.95;;
56181;SDS011;51963;46.052;14.544;2023-02-28T00:41:36;13.38;;;8.05;;
56181;SDS011;51963;46.052;14.544;2023-02-28T00:44:02;14.13;;;7.97;;
56181;SDS011;51963;46.052;14.544;2023-02-28T00:46:31;18.70;;;8.90;;
56181;SDS011;51963;46.052;14.544;2023-02-28T00:48:57;18.08;;;9.02;;
56181;SDS011;51963;46.052;14.544;2023-02-28T00:51:22;14.63;;;8.48;;
56181;SDS011;51963;46.052;14.544;2023-02-28T00:53:48;16.48;;;8.35;;
56181;SDS011;51963;46.052;14.544;2023-02-28T00:56:18;16.05;;;8.35;;
56181;SDS011;51963;46.052;14.544;2023-02-28T00:58:47;20.65;;;8.38;;
56181;SDS011;51963;46.052;14.544;2023-02-28T01:01:12;16.77;;;8.30;;
56181;SDS011;51963;46.052;14.544;2023-02-28T01:03:38;15.52;;;9.18;;
56181;SDS011;51963;46.052;14.544;2023-02-28T01:06:04;19.40;;;9.07;;
56181;SDS011;51963;46.052;14.544;2023-02-28T01:08:33;18.35;;;8.80;;
56181;SDS011;51963;46.052;14.544;2023-02-28T01:11:08;18.48;;;9.27;;
56181;SDS011;51963;46.052;14.544;2023-02-28T01:13:39;15.48;;;8.55;;
56181;SDS011;51963;46.052;14.544;2023-02-28T01:16:05;20.00;;;8.80;;
56181;SDS011;51963;46.052;14.544;2023-02-28T01:18:31;15.27;;;7.90;;
56181;SDS011;51963;46.052;14.544;2023-02-28T01:20:57;15.38;;;7.95;;
56181;SDS011;51963;46.052;14.544;2023-02-28T01:23:23;15.45;;;8.75;;
56181;SDS011;51963;46.052;14.544;2023-02-28T01:25:52;19.10;;;8.73;;
56181;SDS011;51963;46.052;14.544;2023-02-28T01:28:18;16.13;;;8.35;;
56181;SDS011;51963;46.052;14.544;2023-02-28T01:30:47;16.83;;;8.32;;
56181;SDS011;51963;46.052;14.544;2023-02-28T01:33:13;16.17;;;8.30;;
56181;SDS011;51963;46.052;14.544;2023-02-28T01:35:40;15.30;;;8.43;;
56181;SDS011;51963;46.052;14.544;2023-02-28T01:38:07;16.83;;;8.57;;
56181;SDS011;51963;46.052;14.544;2023-02-28T01:40:33;15.77;;;8.52;;
56181;SDS011;51963;46.052;14.544;2023-02-28T01:42:58;14.15;;;8.00;;
56181;SDS011;51963;46.052;14.544;2023-02-28T01:45:30;15.65;;;7.97;;
56181;SDS011;51963;46.052;14.544;2023-02-28T01:47:58;15.02;;;8.23;;
56181;SDS011;51963;46.052;14.544;2023-02-28T01:50:30;15.68;;;7.55;;
56181;SDS011;51963;46.052;14.544;2023-02-28T01:53:00;17.40;;;8.75;;
56181;SDS011;51963;46.052;14.544;2023-02-28T01:55:30;15.27;;;8.80;;
56181;SDS011;51963;46.052;14.544;2023-02-28T01:57:58;15.57;;;8.77;;
56181;SDS011;51963;46.052;14.544;2023-02-28T02:00:29;16.67;;;9.07;;
56181;SDS011;51963;46.052;14.544;2023-02-28T02:03:04;16.90;;;8.68;;
56181;SDS011;51963;46.052;14.544;2023-02-28T02:05:35;15.73;;;8.13;;
56181;SDS011;51963;46.052;14.544;2023-02-28T02:08:04;17.23;;;8.63;;
56181;SDS011;51963;46.052;14.544;2023-02-28T02:10:50;16.00;;;7.93;;
56181;SDS011;51963;46.052;14.544;2023-02-28T02:24:23;16.17;;;8.70;;
56181;SDS011;51963;46.052;14.544;2023-02-28T02:30:19;18.80;;;8.55;;
56181;SDS011;51963;46.052;14.544;2023-02-28T02:43:47;15.20;;;7.80;;
56181;SDS011;51963;46.052;14.544;2023-02-28T02:46:29;16.50;;;8.88;;
56181;SDS011;51963;46.052;14.544;2023-02-28T02:49:00;16.83;;;8.38;;
56181;SDS011;51963;46.052;14.544;2023-02-28T02:51:29;18.02;;;8.65;;
56181;SDS011;51963;46.052;14.544;2023-02-28T02:53:59;18.27;;;8.88;;
56181;SDS011;51963;46.052;14.544;2023-02-28T02:56:41;15.65;;;8.35;;
56181;SDS011;51963;46.052;14.544;2023-02-28T02:59:11;16.08;;;8.65;;
56181;SDS011;51963;46.052;14.544;2023-02-28T03:01:40;18.90;;;7.85;;
56181;SDS011;51963;46.052;14.544;2023-02-28T03:04:11;17.05;;;8.98;;
56181;SDS011;51963;46.052;14.544;2023-02-28T03:06:42;20.33;;;8.93;;
56181;SDS011;51963;46.052;14.544;2023-02-28T03:09:08;15.57;;;8.68;;
56181;SDS011;51963;46.052;14.544;2023-02-28T03:11:34;17.02;;;8.65;;
56181;SDS011;51963;46.052;14.544;2023-02-28T03:14:08;18.13;;;8.60;;
56181;SDS011;51963;46.052;14.544;2023-02-28T03:20:01;15.75;;;8.50;;
56181;SDS011;51963;46.052;14.544;2023-02-28T03:25:33;15.52;;;8.07;;
56181;SDS011;51963;46.052;14.544;2023-02-28T03:28:04;18.58;;;8.05;;
56181;SDS011;51963;46.052;14.544;2023-02-28T03:30:50;16.25;;;8.80;;
56181;SDS011;51963;46.052;14.544;2023-02-28T03:33:44;17.98;;;8.95;;
56181;SDS011;51963;46.052;14.544;2023-02-28T03:36:15;17.60;;;7.70;;
56181;SDS011;51963;46.052;14.544;2023-02-28T03:38:46;16.33;;;8.57;;
56181;SDS011;51963;46.052;14.544;2023-02-28T03:41:20;19.42;;;10.00;;
56181;SDS011;51963;46.052;14.544;2023-02-28T03:44:03;14.90;;;8.68;;
56181;SDS011;51963;46.052;14.544;2023-02-28T03:49:33;17.48;;;8.95;;
56181;SDS011;51963;46.052;14.544;2023-02-28T03:52:20;14.75;;;7.80;;
56181;SDS011;51963;46.052;14.544;2023-02-28T03:54:51;16.02;;;8.55;;
56181;SDS011;51963;46.052;14.544;2023-02-28T04:00:20;18.70;;;8.82;;
56181;SDS011;51963;46.052;14.544;2023-02-28T04:02:53;16.15;;;8.93;;
56181;SDS011;51963;46.052;14.544;2023-02-28T04:05:20;15.95;;;8.93;;
56181;SDS011;51963;46.052;14.544;2023-02-28T04:07:47;16.27;;;8.20;;
56181;SDS011;51963;46.052;14.544;2023-02-28T04:10:13;20.35;;;8.93;;
56181;SDS011;51963;46.052;14.544;2023-02-28T04:12:40;19.17;;;8.55;;
56181;SDS011;51963;46.052;14.544;2023-02-28T04:15:06;15.27;;;8.65;;
56181;SDS011;51963;46.052;14.544;2023-02-28T04:17:32;17.92;;;8.82;;
56181;SDS011;51963;46.052;14.544;2023-02-28T04:19:58;16.98;;;9.13;;
56181;SDS011;51963;46.052;14.544;2023-02-28T04:22:24;19.00;;;8.45;;
56181;SDS011;51963;46.052;14.544;2023-02-28T04:27:20;19.77;;;9.15;;
56181;SDS011;51963;46.052;14.544;2023-02-28T04:29:46;16.75;;;8.60;;
56181;SDS011;51963;46.052;14.544;2023-02-28T04:32:12;16.83;;;8.55;;
56181;SDS011;51963;46.052;14.544;2023-02-28T04:34:38;16.85;;;8.57;;
56181;SDS011;51963;46.052;14.544;2023-02-28T04:37:04;15.43;;;8.73;;
56181;SDS011;51963;46.052;14.544;2023-02-28T04:39:29;20.75;;;9.23;;
56181;SDS011;51963;46.052;14.544;2023-02-28T04:41:55;21.77;;;9.65;;
56181;SDS011;51963;46.052;14.544;2023-02-28T04:44:21;17.80;;;9.18;;
56181;SDS011;51963;46.052;14.544;2023-02-28T04:46:48;16.42;;;8.95;;
56181;SDS011;51963;46.052;14.544;2023-02-28T04:49:15;17.17;;;8.77;;
56181;SDS011;51963;46.052;14.544;2023-02-28T04:51:41;20.52;;;9.98;;
56181;SDS011;51963;46.052;14.544;2023-02-28T04:54:07;19.08;;;8.98;;
56181;SDS011;51963;46.052;14.544;2023-02-28T04:56:33;16.15;;;8.57;;
56181;SDS011;51963;46.052;14.544;2023-02-28T04:58:59;17.13;;;8.60;;
56181;SDS011;51963;46.052;14.544;2023-02-28T05:01:32;14.93;;;8.88;;
56181;SDS011;51963;46.052;14.544;2023-02-28T05:03:59;19.48;;;9.18;;
56181;SDS011;51963;46.052;14.544;2023-02-28T05:06:29;14.57;;;8.68;;
56181;SDS011;51963;46.052;14.544;2023-02-28T05:08:56;19.42;;;9.57;;
56181;SDS011;51963;46.052;14.544;2023-02-28T05:11:27;16.00;;;8.63;;
56181;SDS011;51963;46.052;14.544;2023-02-28T05:14:03;17.25;;;8.77;;
56181;SDS011;51963;46.052;14.544;2023-02-28T05:16:31;18.48;;;8.07;;
56181;SDS011;51963;46.052;14.544;2023-02-28T05:18:57;15.80;;;8.15;;
56181;SDS011;51963;46.052;14.544;2023-02-28T05:23:49;17.33;;;8.50;;
56181;SDS011;51963;46.052;14.544;2023-02-28T05:26:15;17.75;;;8.75;;
56181;SDS011;51963;46.052;14.544;2023-02-28T05:28:40;20.27;;;8.95;;
56181;SDS011;51963;46.052;14.544;2023-02-28T05:31:07;24.30;;;10.68;;
56181;SDS011;51963;46.052;14.544;2023-02-28T05:33:36;17.35;;;8.93;;
56181;SDS011;51963;46.052;14.544;2023-02-28T05:36:02;17.23;;;8.15;;
56181;SDS011;51963;46.052;14.544;2023-02-28T05:38:28;20.60;;;9.82;;
56181;SDS011;51963;46.052;14.544;2023-02-28T05:40:56;17.92;;;8.45;;
56181;SDS011;51963;46.052;14.544;2023-02-28T05:43:22;16.98;;;9.00;;
56181;SDS011;51963;46.052;14.544;2023-02-28T05:45:48;21.95;;;9.05;;
56181;SDS011;51963;46.052;14.544;2023-02-28T05:48:14;17.98;;;8.32;;
56181;SDS011;51963;46.052;14.544;2023-02-28T05:50:39;17.60;;;9.23;;
56181;SDS011;51963;46.052;14.544;2023-02-28T05:53:06;18.20;;;9.00;;
56181;SDS011;51963;46.052;14.544;2023-02-28T05:55:31;19.98;;;9.45;;
56181;SDS011;51963;46.052;14.544;2023-02-28T05:57:57;19.23;;;8.60;;
56181;SDS011;51963;46.052;14.544;2023-02-28T06:00:23;17.88;;;8.73;;
56181;SDS011;51963;46.052;14.544;2023-02-28T06:02:49;18.48;;;9.25;;
56181;SDS011;51963;46.052;14.544;2023-02-28T06:05:15;16.38;;;9.05;;
56181;SDS011;51963;46.052;14.544;2023-02-28T06:07:43;20.30;;;9.20;;
56181;SDS011;51963;46.052;14.544;2023-02-28T06:10:10;19.45;;;8.88;;
56181;SDS011;51963;46.052;14.544;2023-02-28T06:12:37;16.52;;;9.13;;
56181;SDS011;51963;46.052;14.544;2023-02-28T06:15:03;17.42;;;8.88;;
56181;SDS011;51963;46.052;14.544;2023-02-28T06:17:29;16.60;;;8.77;;
56181;SDS011;51963;46.052;14.544;2023-02-28T06:19:55;21.05;;;9.48;;
56181;SDS011;51963;46.052;14.544;2023-02-28T06:22:23;18.30;;;9.60;;
56181;SDS011;51963;46.052;14.544;2023-02-28T06:24:49;21.77;;;9.77;;
56181;SDS011;51963;46.052;14.544;2023-02-28T06:27:14;19.00;;;9.07;;
56181;SDS011;51963;46.052;14.544;2023-02-28T06:29:40;18.58;;;9.20;;
56181;SDS011;51963;46.052;14.544;2023-02-28T06:32:06;22.42;;;10.73;;
56181;SDS011;51963;46.052;14.544;2023-02-28T06:34:32;20.65;;;9.50;;
56181;SDS011;51963;46.052;14.544;2023-02-28T06:37:02;20.40;;;10.48;;
56181;SDS011;51963;46.052;14.544;2023-02-28T06:39:28;25.35;;;10.32;;
56181;SDS011;51963;46.052;14.544;2023-02-28T06:41:55;24.13;;;10.25;;
56181;SDS011;51963;46.052;14.544;2023-02-28T06:44:20;21.30;;;10.70;;
56181;SDS011;51963;46.052;14.544;2023-02-28T06:46:49;19.00;;;9.55;;
56181;SDS011;51963;46.052;14.544;2023-02-28T06:49:15;22.00;;;10.00;;
56181;SDS011;51963;46.052;14.544;2023-02-28T06:51:43;20.98;;;9.68;;
56181;SDS011;51963;46.052;14.544;2023-02-28T06:54:13;19.13;;;10.25;;
56181;SDS011;51963;46.052;14.544;2023-02-28T06:56:39;22.63;;;10.80;;
56181;SDS011;51963;46.052;14.544;2023-02-28T06:59:06;21.73;;;10.68;;
56181;SDS011;51963;46.052;14.544;2023-02-28T07:01:32;20.58;;;10.93;;
56181;SDS011;51963;46.052;14.544;2023-02-28T07:04:00;23.23;;;11.10;;
56181;SDS011;51963;46.052;14.544;2023-02-28T07:06:26;24.48;;;10.00;;
56181;SDS011;51963;46.052;14.544;2023-02-28T07:08:53;24.33;;;10.27;;
56181;SDS011;51963;46.052;14.544;2023-02-28T07:11:21;24.05;;;10.43;;
56181;SDS011;51963;46.052;14.544;2023-02-28T07:13:49;22.73;;;11.63;;
56181;SDS011;51963;46.052;14.544;2023-02-28T07:16:16;27.07;;;11.27;;
56181;SDS011;51963;46.052;14.544;2023-02-28T07:18:41;24.17;;;9.43;;
56181;SDS011;51963;46.052;14.544;2023-02-28T07:21:08;27.17;;;11.30;;
56181;SDS011;51963;46.052;14.544;2023-02-28T07:23:35;30.13;;;11.47;;
56181;SDS011;51963;46.052;14.544;2023-02-28T07:26:03;24.33;;;10.65;;
56181;SDS011;51963;46.052;14.544;2023-02-28T07:28:30;19.60;;;9.27;;
56181;SDS011;51963;46.052;14.544;2023-02-28T07:30:56;21.70;;;10.18;;
56181;SDS011;51963;46.052;14.544;2023-02-28T07:33:22;21.42;;;10.50;;
56181;SDS011;51963;46.052;14.544;2023-02-28T07:35:49;27.38;;;11.10;;
56181;SDS011;51963;46.052;14.544;2023-02-28T07:38:15;23.50;;;11.57;;
56181;SDS011;51963;46.052;14.544;2023-02-28T07:40:40;22.27;;;10.70;;
56181;SDS011;51963;46.052;14.544;2023-02-28T07:43:06;26.25;;;11.43;;
56181;SDS011;51963;46.052;14.544;2023-02-28T07:45:32;22.27;;;11.20;;
56181;SDS011;51963;46.052;14.544;2023-02-28T07:48:00;23.80;;;11.32;;
56181;SDS011;51963;46.052;14.544;2023-02-28T07:50:26;24.65;;;11.55;;
56181;SDS011;51963;46.052;14.544;2023-02-28T07:52:57;22.15;;;11.27;;
56181;SDS011;51963;46.052;14.544;2023-02-28T07:55:23;28.73;;;10.85;;
56181;SDS011;51963;46.052;14.544;2023-02-28T07:57:49;22.08;;;10.07;;
56181;SDS011;51963;46.052;14.544;2023-02-28T08:00:15;26.70;;;10.65;;
56181;SDS011;51963;46.052;14.544;2023-02-28T08:02:41;25.13;;;11.18;;
56181;SDS011;51963;46.052;14.544;2023-02-28T08:05:07;23.35;;;10.38;;
56181;SDS011;51963;46.052;14.544;2023-02-28T08:07:33;27.33;;;11.52;;
56181;SDS011;51963;46.052;14.544;2023-02-28T08:09:59;24.40;;;11.63;;
56181;SDS011;51963;46.052;14.544;2023-02-28T08:12:25;23.25;;;10.80;;
56181;SDS011;51963;46.052;14.544;2023-02-28T08:14:51;25.88;;;11.48;;
56181;SDS011;51963;46.052;14.544;2023-02-28T08:17:16;34.00;;;12.07;;
56181;SDS011;51963;46.052;14.544;2023-02-28T08:19:45;29.38;;;10.95;;
56181;SDS011;51963;46.052;14.544;2023-02-28T08:22:11;25.70;;;10.98;;
56181;SDS011;51963;46.052;14.544;2023-02-28T08:24:37;29.88;;;10.98;;
56181;SDS011;51963;46.052;14.544;2023-02-28T08:27:02;25.42;;;11.10;;
56181;SDS011;51963;46.052;14.544;2023-02-28T08:29:28;29.13;;;11.75;;
56181;SDS011;51963;46.052;14.544;2023-02-28T08:31:55;37.42;;;12.63;;
56181;SDS011;51963;46.052;14.544;2023-02-28T08:34:22;27.23;;;11.57;;
56181;SDS011;51963;46.052;14.544;2023-02-28T08:36:48;40.67;;;12.50;;
56181;SDS011;51963;46.052;14.544;2023-02-28T08:39:14;27.13;;;11.70;;
56181;SDS011;51963;46.052;14.544;2023-02-28T08:41:41;26.42;;;11.20;;
56181;SDS011;51963;46.052;14.544;2023-02-28T08:44:07;28.50;;;10.30;;
56181;SDS011;51963;46.052;14.544;2023-02-28T08:46:33;34.25;;;11.95;;
56181;SDS011;51963;46.052;14.544;2023-02-28T08:48:59;24.60;;;10.60;;
56181;SDS011;51963;46.052;14.544;2023-02-28T08:51:26;29.20;;;11.25;;
56181;SDS011;51963;46.052;14.544;2023-02-28T08:53:53;25.67;;;11.50;;
56181;SDS011;51963;46.052;14.544;2023-02-28T08:56:20;21.05;;;10.10;;
56181;SDS011;51963;46.052;14.544;2023-02-28T08:58:47;26.13;;;11.45;;
56181;SDS011;51963;46.052;14.544;2023-02-28T09:01:21;23.15;;;10.48;;
56181;SDS011;51963;46.052;14.544;2023-02-28T09:03:49;26.65;;;11.32;;
56181;SDS011;51963;46.052;14.544;2023-02-28T09:06:17;28.17;;;11.48;;
56181;SDS011;51963;46.052;14.544;2023-02-28T09:08:44;23.67;;;10.95;;
56181;SDS011;51963;46.052;14.544;2023-02-28T09:11:10;26.38;;;11.80;;
56181;SDS011;51963;46.052;14.544;2023-02-28T09:13:36;25.92;;;11.23;;
56181;SDS011;51963;46.052;14.544;2023-02-28T09:16:04;24.08;;;10.63;;
56181;SDS011;51963;46.052;14.544;2023-02-28T09:18:33;24.95;;;10.80;;
56181;SDS011;51963;46.052;14.544;2023-02-28T09:21:07;26.08;;;11.68;;
56181;SDS011;51963;46.052;14.544;2023-02-28T09:23:41;23.20;;;10.68;;
56181;SDS011;51963;46.052;14.544;2023-02-28T09:26:11;22.05;;;9.93;;
56181;SDS011;51963;46.052;14.544;2023-02-28T09:28:40;23.33;;;10.00;;
56181;SDS011;51963;46.052;14.544;2023-02-28T09:31:11;25.02;;;11.48;;
56181;SDS011;51963;46.052;14.544;2023-02-28T09:33:42;25.33;;;10.75;;
56181;SDS011;51963;46.052;14.544;2023-02-28T09:36:08;22.30;;;11.05;;
56181;SDS011;51963;46.052;14.544;2023-02-28T09:38:34;22.00;;;9.68;;
56181;SDS011;51963;46.052;14.544;2023-02-28T09:41:01;21.27;;;9.50;;
56181;SDS011;51963;46.052;14.544;2023-02-28T09:43:36;25.75;;;10.43;;
56181;SDS011;51963;46.052;14.544;2023-02-28T09:46:11;19.95;;;10.10;;
56181;SDS011;51963;46.052;14.544;2023-02-28T09:48:48;21.92;;;10.38;;
56181;SDS011;51963;46.052;14.544;2023-02-28T09:54:20;20.83;;;9.77;;
56181;SDS011;51963;46.052;14.544;2023-02-28T09:56:49;20.67;;;10.25;;
56181;SDS011;51963;46.052;14.544;2023-02-28T10:04:42;20.08;;;10.48;;
56181;SDS011;51963;46.052;14.544;2023-02-28T10:13:02;22.15;;;10.02;;
56181;SDS011;51963;46.052;14.544;2023-02-28T10:15:32;20.02;;;9.70;;
56181;SDS011;51963;46.052;14.544;2023-02-28T10:20:29;22.73;;;10.27;;
56181;SDS011;51963;46.052;14.544;2023-02-28T10:23:04;21.95;;;9.27;;
56181;SDS011;51963;46.052;14.544;2023-02-28T10:25:39;21.00;;;10.13;;
56181;SDS011;51963;46.052;14.544;2023-02-28T10:28:12;22.15;;;10.13;;
56181;SDS011;51963;46.052;14.544;2023-02-28T10:30:47;24.42;;;10.40;;
56181;SDS011;51963;46.052;14.544;2023-02-28T10:35:53;23.88;;;11.13;;
56181;SDS011;51963;46.052;14.544;2023-02-28T10:38:23;23.63;;;10.05;;
56181;SDS011;51963;46.052;14.544;2023-02-28T10:40:51;24.38;;;10.50;;
56181;SDS011;51963;46.052;14.544;2023-02-28T10:43:28;26.05;;;9.95;;
56181;SDS011;51963;46.052;14.544;2023-02-28T10:46:01;26.48;;;11.35;;
56181;SDS011;51963;46.052;14.544;2023-02-28T10:48:29;24.17;;;11.02;;
56181;SDS011;51963;46.052;14.544;2023-02-28T10:50:58;25.92;;;10.93;;
56181;SDS011;51963;46.052;14.544;2023-02-28T10:53:28;26.55;;;11.43;;
56181;SDS011;51963;46.052;14.544;2023-02-28T11:01:16;30.23;;;12.55;;
56181;SDS011;51963;46.052;14.544;2023-02-28T11:03:47;24.42;;;11.35;;
56181;SDS011;51963;46.052;14.544;2023-02-28T11:06:19;23.55;;;11.27;;
56181;SDS011;51963;46.052;14.544;2023-02-28T11:08:49;27.45;;;11.93;;
56181;SDS011;51963;46.052;14.544;2023-02-28T11:11:18;21.25;;;10.75;;
56181;SDS011;51963;46.052;14.544;2023-02-28T11:13:45;27.95;;;11.98;;
56181;SDS011;51963;46.052;14.544;2023-02-28T11:16:13;22.10;;;10.40;;
56181;SDS011;51963;46.052;14.544;2023-02-28T11:21:06;26.85;;;11.93;;
56181;SDS011;51963;46.052;14.544;2023-02-28T11:23:36;25.73;;;12.07;;
56181;SDS011;51963;46.052;14.544;2023-02-28T11:26:05;21.98;;;12.18;;
56181;SDS011;51963;46.052;14.544;2023-02-28T11:28:36;24.85;;;11.52;;
56181;SDS011;51963;46.052;14.544;2023-02-28T11:38:56;20.42;;;10.27;;
56181;SDS011;51963;46.052;14.544;2023-02-28T11:47:09;24.10;;;12.00;;
56181;SDS011;51963;46.052;14.544;2023-02-28T11:50:04;25.60;;;11.18;;
56181;SDS011;51963;46.052;14.544;2023-02-28T11:52:42;28.05;;;11.63;;
56181;SDS011;51963;46.052;14.544;2023-02-28T12:13:48;23.52;;;11.18;;
56181;SDS011;51963;46.052;14.544;2023-02-28T12:27:29;25.13;;;11.20;;
56181;SDS011;51963;46.052;14.544;2023-02-28T12:30:01;22.73;;;10.65;;
56181;SDS011;51963;46.052;14.544;2023-02-28T12:32:31;25.75;;;10.85;;
56181;SDS011;51963;46.052;14.544;2023-02-28T12:35:14;24.00;;;11.00;;
56181;SDS011;51963;46.052;14.544;2023-02-28T12:37:45;23.08;;;11.30;;
56181;SDS011;51963;46.052;14.544;2023-02-28T12:40:17;23.88;;;11.10;;
56181;SDS011;51963;46.052;14.544;2023-02-28T12:42:50;22.13;;;11.23;;
56181;SDS011;51963;46.052;14.544;2023-02-28T12:45:22;22.05;;;10.77;;
56181;SDS011;51963;46.052;14.544;2023-02-28T12:47:56;21.20;;;10.70;;
56181;SDS011;51963;46.052;14.544;2023-02-28T12:50:26;22.15;;;10.45;;
56181;SDS011;51963;46.052;14.544;2023-02-28T13:00:28;23.30;;;10.82;;
56181;SDS011;51963;46.052;14.544;2023-02-28T13:08:57;20.88;;;10.10;;
56181;SDS011;51963;46.052;14.544;2023-02-28T13:11:38;24.55;;;11.05;;
56181;SDS011;51963;46.052;14.544;2023-02-28T13:14:16;22.23;;;11.13;;
56181;SDS011;51963;46.052;14.544;2023-02-28T13:16:57;24.63;;;10.43;;
56181;SDS011;51963;46.052;14.544;2023-02-28T13:19:29;20.65;;;9.32;;
56181;SDS011;51963;46.052;14.544;2023-02-28T13:21:58;22.95;;;11.23;;
56181;SDS011;51963;46.052;14.544;2023-02-28T13:29:40;24.23;;;11.30;;
56181;SDS011;51963;46.052;14.544;2023-02-28T13:34:33;22.67;;;11.50;;
56181;SDS011;51963;46.052;14.544;2023-02-28T13:39:51;21.63;;;11.55;;
56181;SDS011;51963;46.052;14.544;2023-02-28T13:45:32;23.85;;;12.50;;
56181;SDS011;51963;46.052;14.544;2023-02-28T13:47:36;22.40;;;11.45;;
56181;SDS011;51963;46.052;14.544;2023-02-28T14:01:25;21.40;;;11.35;;
56181;SDS011;51963;46.052;14.544;2023-02-28T14:07:07;25.25;;;11.77;;
56181;SDS011;51963;46.052;14.544;2023-02-28T14:09:54;25.80;;;11.50;;
56181;SDS011;51963;46.052;14.544;2023-02-28T14:15:28;27.30;;;11.97;;
56181;SDS011;51963;46.052;14.544;2023-02-28T14:18:15;25.90;;;12.00;;
56181;SDS011;51963;46.052;14.544;2023-02-28T14:23:15;26.58;;;12.48;;
56181;SDS011;51963;46.052;14.544;2023-02-28T14:37:19;25.63;;;12.07;;
56181;SDS011;51963;46.052;14.544;2023-02-28T14:39:50;25.30;;;11.90;;
56181;SDS011;51963;46.052;14.544;2023-02-28T14:44:56;24.60;;;11.63;;
56181;SDS011;51963;46.052;14.544;2023-02-28T14:47:22;24.17;;;12.57;;
56181;SDS011;51963;46.052;14.544;2023-02-28T14:49:52;24.58;;;12.07;;
56181;SDS011;51963;46.052;14.544;2023-02-28T14:52:22;27.08;;;12.07;;
56181;SDS011;51963;46.052;14.544;2023-02-28T14:54:56;25.35;;;12.20;;
56181;SDS011;51963;46.052;14.544;2023-02-28T14:57:29;24.95;;;12.30;;
56181;SDS011;51963;46.052;14.544;2023-02-28T15:02:49;27.17;;;13.00;;
56181;SDS011;51963;46.052;14.544;2023-02-28T15:07:43;26.42;;;13.07;;
56181;SDS011;51963;46.052;14.544;2023-02-28T15:12:55;25.30;;;12.93;;
56181;SDS011;51963;46.052;14.544;2023-02-28T15:18:15;28.33;;;12.98;;
56181;SDS011;51963;46.052;14.544;2023-02-28T15:20:50;25.45;;;12.20;;
56181;SDS011;51963;46.052;14.544;2023-02-28T15:23:17;28.33;;;13.15;;
56181;SDS011;51963;46.052;14.544;2023-02-28T15:25:47;27.25;;;13.60;;
56181;SDS011;51963;46.052;14.544;2023-02-28T15:28:17;23.88;;;11.48;;
56181;SDS011;51963;46.052;14.544;2023-02-28T15:30:53;32.97;;;13.35;;
56181;SDS011;51963;46.052;14.544;2023-02-28T15:33:23;29.90;;;14.07;;
56181;SDS011;51963;46.052;14.544;2023-02-28T15:36:03;26.15;;;12.38;;
56181;SDS011;51963;46.052;14.544;2023-02-28T15:38:40;25.20;;;12.20;;
56181;SDS011;51963;46.052;14.544;2023-02-28T15:41:25;25.90;;;12.88;;
56181;SDS011;51963;46.052;14.544;2023-02-28T15:45:37;25.60;;;12.48;;
56181;SDS011;51963;46.052;14.544;2023-02-28T15:51:08;26.60;;;12.57;;
56181;SDS011;51963;46.052;14.544;2023-02-28T15:56:32;31.63;;;13.48;;
56181;SDS011;51963;46.052;14.544;2023-02-28T15:59:12;27.17;;;12.48;;
56181;SDS011;51963;46.052;14.544;2023-02-28T16:01:43;29.58;;;12.80;;
56181;SDS011;51963;46.052;14.544;2023-02-28T16:04:18;25.63;;;12.02;;
56181;SDS011;51963;46.052;14.544;2023-02-28T16:09:25;26.03;;;12.17;;
56181;SDS011;51963;46.052;14.544;2023-02-28T16:11:54;26.92;;;12.05;;
56181;SDS011;51963;46.052;14.544;2023-02-28T16:14:23;24.58;;;12.20;;
56181;SDS011;51963;46.052;14.544;2023-02-28T16:16:55;28.13;;;12.40;;
56181;SDS011;51963;46.052;14.544;2023-02-28T16:19:27;28.60;;;12.43;;
56181;SDS011;51963;46.052;14.544;2023-02-28T16:21:53;27.48;;;12.85;;
56181;SDS011;51963;46.052;14.544;2023-02-28T16:24:18;24.38;;;12.90;;
56181;SDS011;51963;46.052;14.544;2023-02-28T16:26:45;27.00;;;12.80;;
56181;SDS011;51963;46.052;14.544;2023-02-28T16:29:14;29.52;;;12.88;;
56181;SDS011;51963;46.052;14.544;2023-02-28T16:32:01;26.45;;;13.25;;
56181;SDS011;51963;46.052;14.544;2023-02-28T16:36:55;28.40;;;13.30;;
56181;SDS011;51963;46.052;14.544;2023-02-28T16:39:20;27.77;;;13.68;;
56181;SDS011;51963;46.052;14.544;2023-02-28T16:41:46;36.17;;;14.50;;
56181;SDS011;51963;46.052;14.544;2023-02-28T16:44:29;31.08;;;14.93;;
56181;SDS011;51963;46.052;14.544;2023-02-28T16:46:59;29.08;;;14.18;;
56181;SDS011;51963;46.052;14.544;2023-02-28T16:49:25;31.55;;;15.23;;
56181;SDS011;51963;46.052;14.544;2023-02-28T16:51:52;31.23;;;14.77;;
56181;SDS011;51963;46.052;14.544;2023-02-28T16:54:18;33.28;;;14.73;;
56181;SDS011;51963;46.052;14.544;2023-02-28T16:56:44;32.25;;;16.33;;
56181;SDS011;51963;46.052;14.544;2023-02-28T16:59:12;31.52;;;14.52;;
56181;SDS011;51963;46.052;14.544;2023-02-28T17:01:38;31.98;;;15.07;;
56181;SDS011;51963;46.052;14.544;2023-02-28T17:04:04;30.00;;;14.60;;
56181;SDS011;51963;46.052;14.544;2023-02-28T17:06:33;29.67;;;13.80;;
56181;SDS011;51963;46.052;14.544;2023-02-28T17:08:59;29.67;;;14.68;;
56181;SDS011;51963;46.052;14.544;2023-02-28T17:11:25;33.08;;;14.57;;
56181;SDS011;51963;46.052;14.544;2023-02-28T17:13:51;29.98;;;14.40;;
56181;SDS011;51963;46.052;14.544;2023-02-28T17:16:23;29.20;;;14.38;;
56181;SDS011;51963;46.052;14.544;2023-02-28T17:18:54;36.60;;;15.52;;
56181;SDS011;51963;46.052;14.544;2023-02-28T17:21:22;30.13;;;15.35;;
56181;SDS011;51963;46.052;14.544;2023-02-28T17:23:47;34.13;;;14.60;;
56181;SDS011;51963;46.052;14.544;2023-02-28T17:26:14;31.42;;;15.27;;
56181;SDS011;51963;46.052;14.544;2023-02-28T17:28:45;33.33;;;14.70;;
56181;SDS011;51963;46.052;14.544;2023-02-28T17:31:16;29.55;;;14.88;;
56181;SDS011;51963;46.052;14.544;2023-02-28T17:33:43;32.95;;;15.85;;
56181;SDS011;51963;46.052;14.544;2023-02-28T17:36:30;30.90;;;15.13;;
56181;SDS011;51963;46.052;14.544;2023-02-28T17:38:55;37.42;;;15.25;;
56181;SDS011;51963;46.052;14.544;2023-02-28T17:41:26;34.38;;;14.90;;
56181;SDS011;51963;46.052;14.544;2023-02-28T17:43:52;32.42;;;14.85;;